Time;durP1;ratioP1;P1;durP2;ratioP2;P2;SDS_P1;SDS_P2;PMS_P1;PMS_P2;Temp;Humidity;BMP_temperature;BMP_pressure;BME280_temperature;BME280_humidity;BME280_pressure;Samples;Min_cycle;Max_cycle;Signal;HPM_P1;HPM_P2
2021/08/14 00:00:18;;;;;;;5.63;3.72;;;;;;;21.27;34.49;101794.22;2612155;54;20043;-69
2021/08/14 00:02:48;;;;;;;5.38;3.42;;;;;;;21.24;34.13;101787.09;2612358;54;20045;-69
2021/08/14 00:05:19;;;;;;;8.35;4.20;;;;;;;21.21;34.57;101783.81;2614730;39;20427;-70
2021/08/14 00:07:48;;;;;;;5.65;3.33;;;;;;;21.18;34.17;101796.16;2614316;39;20463;-69
2021/08/14 00:10:20;;;;;;;5.68;3.78;;;;;;;21.19;34.24;101785.88;2614720;54;20042;-70
2021/08/14 00:12:49;;;;;;;5.73;3.27;;;;;;;21.13;34.34;101786.63;2624391;36;2004130;-69
2021/08/14 00:15:20;;;;;;;5.53;3.20;;;;;;;21.13;34.26;101787.50;2613554;46;20090;-69
2021/08/14 00:17:49;;;;;;;5.68;3.13;;;;;;;21.12;34.69;101784.88;2646185;36;20031;-69
2021/08/14 00:20:20;;;;;;;6.13;3.40;;;;;;;21.11;34.32;101788.72;2613810;54;20554;-69
2021/08/14 00:22:49;;;;;;;5.93;3.78;;;;;;;21.08;34.42;101784.34;2646496;36;20041;-68
2021/08/14 00:25:21;;;;;;;6.20;3.55;;;;;;;21.07;34.40;101791.00;2613223;54;20907;-69
2021/08/14 00:27:51;;;;;;;6.05;3.53;;;;;;;21.03;33.99;101784.91;2612658;54;20042;-69
2021/08/14 00:30:21;;;;;;;8.20;3.70;;;;;;;21.02;34.47;101791.50;2613455;36;20038;-69
2021/08/14 00:32:51;;;;;;;5.70;3.65;;;;;;;21.02;34.54;101790.66;2647044;36;20034;-70
2021/08/14 00:35:21;;;;;;;6.65;4.20;;;;;;;21.00;34.84;101790.81;2613548;54;20034;-69
2021/08/14 00:37:52;;;;;;;6.50;3.92;;;;;;;20.99;35.14;101796.59;2613338;54;20789;-69
2021/08/14 00:40:23;;;;;;;7.53;4.18;;;;;;;20.99;35.27;101797.47;2613684;54;20038;-69
2021/08/14 00:42:53;;;;;;;7.18;4.22;;;;;;;20.92;34.99;101788.06;2647089;36;20090;-69
2021/08/14 00:45:23;;;;;;;6.78;4.15;;;;;;;20.91;35.33;101796.63;2612004;54;20049;-69
2021/08/14 00:47:54;;;;;;;6.97;4.05;;;;;;;20.88;34.71;101788.56;2673680;36;20037;-68
2021/08/14 00:50:23;;;;;;;6.95;4.22;;;;;;;20.85;35.07;101791.69;2612561;54;20034;-70
2021/08/14 00:52:53;;;;;;;7.43;3.92;;;;;;;20.83;35.05;101788.25;2646295;36;20030;-69
2021/08/14 00:55:24;;;;;;;6.45;4.20;;;;;;;20.82;35.04;101786.50;2613619;39;20481;-69
2021/08/14 00:57:54;;;;;;;6.88;4.18;;;;;;;20.77;35.24;101783.38;2646643;36;20034;-70
2021/08/14 01:00:25;;;;;;;6.90;4.18;;;;;;;20.76;34.99;101784.41;2613618;54;20038;-69
2021/08/14 01:02:55;;;;;;;8.88;4.80;;;;;;;20.73;35.67;101773.66;2646618;36;20041;-69
2021/08/14 01:05:26;;;;;;;7.47;4.28;;;;;;;20.70;35.62;101772.97;2613556;54;20034;-69
2021/08/14 01:07:56;;;;;;;7.20;4.18;;;;;;;20.67;36.21;101770.53;2646718;36;20041;-69
2021/08/14 01:10:27;;;;;;;7.10;4.30;;;;;;;20.66;35.83;101768.81;2611293;47;20034;-69
2021/08/14 01:12:58;;;;;;;6.10;3.27;;;;;;;20.59;35.72;101761.34;2672256;36;20062;-69
2021/08/14 01:15:28;;;;;;;8.05;4.32;;;;;;;20.55;36.16;101759.97;2613391;54;20054;-68
2021/08/14 01:17:59;;;;;;;7.40;4.07;;;;;;;20.53;36.15;101765.69;2646457;36;20034;-68
2021/08/14 01:20:29;;;;;;;6.10;3.60;;;;;;;20.47;35.98;101766.41;2612251;47;20034;-69
2021/08/14 01:22:59;;;;;;;5.65;3.88;;;;;;;20.43;36.07;101778.03;2645380;36;20026;-70
2021/08/14 01:25:30;;;;;;;7.82;3.95;;;;;;;20.41;36.02;101767.13;2612884;54;20034;-69
2021/08/14 01:28:01;;;;;;;7.00;3.55;;;;;;;20.38;36.17;101772.16;2646085;36;20030;-69
2021/08/14 01:30:31;;;;;;;6.68;3.88;;;;;;;20.35;35.99;101773.34;2612814;54;20038;-69
2021/08/14 01:33:02;;;;;;;7.47;4.50;;;;;;;20.31;35.92;101775.63;2613564;54;20059;-69
2021/08/14 01:35:31;;;;;;;6.63;3.70;;;;;;;20.30;36.13;101778.59;2609734;31;20616;-69
2021/08/14 01:38:01;;;;;;;6.75;3.80;;;;;;;20.27;36.60;101768.66;2645441;36;20030;-69
2021/08/14 01:40:31;;;;;;;6.60;3.72;;;;;;;20.26;36.18;101769.72;2613823;39;20120;-69
2021/08/14 01:43:06;;;;;;;6.18;3.70;;;;;;;20.27;36.61;101762.25;2646965;36;20040;-69
2021/08/14 01:45:36;;;;;;;5.25;3.22;;;;;;;20.23;36.53;101761.75;2613466;54;20038;-69
2021/08/14 01:48:06;;;;;;;6.05;3.80;;;;;;;20.22;36.56;101754.44;2646372;36;20031;-69
2021/08/14 01:50:36;;;;;;;7.00;3.83;;;;;;;20.20;36.19;101753.72;2612678;39;20141;-68
2021/08/14 01:53:06;;;;;;;5.85;3.55;;;;;;;20.19;35.91;101751.09;2645266;36;20038;-69
2021/08/14 01:55:36;;;;;;;6.53;3.92;;;;;;;20.17;35.81;101747.66;2612458;54;20045;-68
2021/08/14 01:58:08;;;;;;;5.47;3.65;;;;;;;20.18;35.89;101744.69;2645094;36;20595;-69
2021/08/14 02:00:38;;;;;;;6.05;3.60;;;;;;;20.13;35.90;101743.47;2612256;54;20042;-69
2021/08/14 02:03:08;;;;;;;5.97;3.67;;;;;;;20.13;35.72;101737.91;2646660;36;20082;-69
2021/08/14 02:05:38;;;;;;;6.50;4.15;;;;;;;20.11;36.06;101738.09;2613333;54;20068;-69
2021/08/14 02:08:08;;;;;;;7.32;4.20;;;;;;;20.11;36.22;101737.22;2613765;54;20038;-69
2021/08/14 02:10:38;;;;;;;5.90;3.63;;;;;;;20.08;36.14;101744.00;2614337;54;20034;-69
2021/08/14 02:13:12;;;;;;;7.60;4.28;;;;;;;20.09;36.14;101747.66;2646939;36;20045;-69
2021/08/14 02:15:42;;;;;;;6.35;3.67;;;;;;;20.03;36.44;101743.63;2612613;54;20050;-69
2021/08/14 02:18:11;;;;;;;6.95;4.00;;;;;;;20.02;36.47;101750.22;2610759;47;20038;-69
2021/08/14 02:20:41;;;;;;;5.57;4.00;;;;;;;20.00;36.31;101752.34;2612430;54;20042;-69
2021/08/14 02:23:11;;;;;;;5.90;3.58;;;;;;;19.95;36.08;101747.28;2646949;36;20038;-69
2021/08/14 02:25:41;;;;;;;7.65;4.22;;;;;;;19.94;36.27;101747.44;2612195;54;20034;-69
2021/08/14 02:28:12;;;;;;;6.57;3.88;;;;;;;19.94;36.58;101744.69;2645902;36;20108;-69
2021/08/14 02:30:42;;;;;;;6.80;3.95;;;;;;;19.89;36.40;101744.34;2612767;54;20061;-69
2021/08/14 02:33:12;;;;;;;7.72;4.28;;;;;;;19.88;36.30;101742.59;2672927;36;20041;-68
2021/08/14 02:35:41;;;;;;;6.65;4.05;;;;;;;19.86;35.90;101741.88;2612991;54;20038;-70
2021/08/14 02:38:11;;;;;;;6.60;3.90;;;;;;;19.84;36.30;101742.06;2647174;36;20031;-68
2021/08/14 02:40:41;;;;;;;6.60;4.15;;;;;;;19.83;36.63;101736.69;2613183;54;20034;-69
2021/08/14 02:43:12;;;;;;;6.55;3.70;;;;;;;19.83;36.62;101747.81;2645531;36;20035;-69
2021/08/14 02:45:42;;;;;;;6.13;3.58;;;;;;;19.80;36.33;101746.22;2612514;54;20571;-68
2021/08/14 02:48:12;;;;;;;7.13;4.30;;;;;;;19.77;36.40;101742.91;2645455;36;20665;-69
2021/08/14 02:50:44;;;;;;;8.13;4.80;;;;;;;19.76;37.25;101741.22;2613005;54;20057;-69
2021/08/14 02:53:14;;;;;;;6.18;4.20;;;;;;;19.69;36.75;101741.00;2646164;36;20034;-69
2021/08/14 02:55:44;;;;;;;6.30;4.07;;;;;;;19.66;36.80;101733.03;2612854;54;20042;-69
2021/08/14 02:58:15;;;;;;;8.48;4.00;;;;;;;19.64;36.81;101735.09;2645439;36;20038;-68
2021/08/14 03:00:45;;;;;;;7.25;4.13;;;;;;;19.61;37.09;101737.34;2610598;46;20563;-69
2021/08/14 03:03:16;;;;;;;6.85;4.43;;;;;;;19.58;37.32;101737.69;2647783;36;20052;-69
2021/08/14 03:05:46;;;;;;;7.97;4.15;;;;;;;19.56;37.44;101743.41;2610294;54;20035;-69
2021/08/14 03:08:15;;;;;;;8.02;4.10;;;;;;;19.55;37.59;101736.13;2648195;36;20038;-69
2021/08/14 03:10:45;;;;;;;7.35;3.90;;;;;;;19.54;37.18;101739.94;2613792;54;20042;-69
2021/08/14 03:13:17;;;;;;;6.30;4.38;;;;;;;19.55;37.86;101730.56;2675786;36;20034;-70
2021/08/14 03:15:47;;;;;;;6.22;3.83;;;;;;;19.50;37.06;101731.09;2612004;47;20259;-69
2021/08/14 03:18:17;;;;;;;7.00;3.90;;;;;;;19.52;37.04;101726.22;2614624;39;20417;-69
2021/08/14 03:20:46;;;;;;;7.22;4.28;;;;;;;19.52;37.17;101733.69;2613220;39;20456;-69
2021/08/14 03:23:16;;;;;;;7.00;4.82;;;;;;;19.53;37.52;101729.88;2647087;36;20826;-69
2021/08/14 03:25:46;;;;;;;7.05;3.97;;;;;;;19.52;37.64;101730.91;2612348;54;20560;-69
2021/08/14 03:28:17;;;;;;;7.50;3.85;;;;;;;19.54;37.70;101732.47;2647126;36;20062;-69
2021/08/14 03:30:47;;;;;;;6.60;4.10;;;;;;;19.52;37.50;101734.56;2612288;54;20065;-68
2021/08/14 03:33:17;;;;;;;6.65;4.45;;;;;;;19.52;38.02;101729.00;2646958;36;20069;-69
2021/08/14 03:35:46;;;;;;;6.85;4.05;;;;;;;19.52;37.46;101731.78;2611142;47;20034;-68
2021/08/14 03:38:16;;;;;;;6.72;4.03;;;;;;;19.51;37.76;101730.03;2646303;36;20038;-69
2021/08/14 03:40:46;;;;;;;8.23;4.72;;;;;;;19.51;37.36;101731.97;2611001;54;20042;-69
2021/08/14 03:43:19;;;;;;;6.88;4.00;;;;;;;19.52;37.35;101725.34;2646131;36;20046;-69
2021/08/14 03:45:49;;;;;;;6.50;4.63;;;;;;;19.48;37.35;101724.81;2611429;54;20650;-69
2021/08/14 03:48:19;;;;;;;7.03;4.07;;;;;;;19.48;37.77;101727.59;2646616;36;20172;-69
2021/08/14 03:50:49;;;;;;;6.15;3.88;;;;;;;19.46;37.71;101732.44;2610722;54;20594;-69
2021/08/14 03:53:19;;;;;;;7.15;3.92;;;;;;;19.45;37.71;101729.81;2645457;36;20068;-69
2021/08/14 03:55:49;;;;;;;7.72;4.57;;;;;;;19.42;37.44;101735.72;2611963;54;20038;-69
2021/08/14 03:58:20;;;;;;;5.75;3.85;;;;;;;19.42;37.31;101727.41;2646383;36;20069;-68
2021/08/14 04:00:49;;;;;;;6.30;4.00;;;;;;;19.37;37.64;101733.44;2612386;54;20034;-70
2021/08/14 04:03:19;;;;;;;6.35;3.72;;;;;;;19.36;37.81;101737.25;2613775;39;20425;-69
2021/08/14 04:05:49;;;;;;;6.30;4.03;;;;;;;19.34;37.50;101725.47;2613315;39;20663;-69
2021/08/14 04:08:20;;;;;;;7.93;4.10;;;;;;;19.35;37.34;101740.22;2645724;36;20045;-69
2021/08/14 04:10:50;;;;;;;6.15;3.72;;;;;;;19.33;37.50;101739.50;2612157;54;20038;-69
2021/08/14 04:13:21;;;;;;;6.32;4.32;;;;;;;19.34;37.89;101733.81;2612620;54;20034;-71
2021/08/14 04:15:51;;;;;;;7.10;4.30;;;;;;;19.32;37.54;101737.78;2612057;54;20597;-68
2021/08/14 04:18:21;;;;;;;6.78;4.28;;;;;;;19.28;37.94;101731.69;2645781;36;20098;-69
2021/08/14 04:20:51;;;;;;;6.80;3.92;;;;;;;19.28;37.32;101734.44;2612082;54;20042;-69
2021/08/14 04:23:20;;;;;;;6.60;4.03;;;;;;;19.27;38.04;101743.81;2646408;36;20043;-68
2021/08/14 04:25:51;;;;;;;6.75;4.70;;;;;;;19.25;38.13;101745.91;2611730;54;20035;-69
2021/08/14 04:28:22;;;;;;;8.20;4.43;;;;;;;19.27;37.86;101746.56;2644955;36;20038;-70
2021/08/14 04:30:51;;;;;;;7.28;4.13;;;;;;;19.23;37.78;101744.31;2610686;54;20050;-69
2021/08/14 04:33:21;;;;;;;7.57;4.22;;;;;;;19.22;37.67;101739.81;2611696;54;20042;-69
2021/08/14 04:35:51;;;;;;;6.43;4.00;;;;;;;19.19;38.13;101733.56;2611791;54;20041;-69
2021/08/14 04:38:21;;;;;;;6.90;3.90;;;;;;;19.18;37.74;101734.59;2645585;36;20642;-69
2021/08/14 04:40:51;;;;;;;6.60;4.13;;;;;;;19.18;37.84;101742.06;2612491;39;20464;-68
2021/08/14 04:43:22;;;;;;;7.93;4.50;;;;;;;19.18;37.62;101745.69;2611766;39;20579;-69
2021/08/14 04:45:52;;;;;;;6.97;4.53;;;;;;;19.15;38.08;101740.50;2611328;54;20034;-69
2021/08/14 04:48:21;;;;;;;6.78;4.15;;;;;;;19.14;37.76;101741.53;2609940;54;20104;-68
2021/08/14 04:50:51;;;;;;;7.07;4.05;;;;;;;19.12;38.41;101735.25;2612755;54;20042;-69
2021/08/14 04:53:21;;;;;;;6.88;4.28;;;;;;;19.12;38.32;101740.81;2611846;39;20303;-68
2021/08/14 04:55:51;;;;;;;7.97;4.30;;;;;;;19.11;38.17;101741.84;2610593;39;20449;-69
2021/08/14 04:58:22;;;;;;;6.13;4.28;;;;;;;19.12;38.06;101737.16;2673341;36;20034;-69
2021/08/14 05:00:52;;;;;;;7.45;4.63;;;;;;;19.09;38.61;101737.53;2610834;54;20062;-69
2021/08/14 05:03:25;;;;;;;6.13;3.95;;;;;;;19.07;38.43;101743.22;2645140;36;20122;-70
2021/08/14 05:05:55;;;;;;;7.65;4.15;;;;;;;19.07;37.91;101750.69;2609718;54;20147;-71
2021/08/14 05:08:26;;;;;;;6.38;3.83;;;;;;;19.04;38.21;101743.56;2611982;54;20062;-69
2021/08/14 05:10:55;;;;;;;6.72;4.47;;;;;;;19.04;37.96;101734.34;2611665;39;20452;-69
2021/08/14 05:13:36;;;;;;;6.07;3.78;;;;;;;19.07;38.18;101734.91;2646066;36;20045;-71
2021/08/14 05:16:07;;;;;;;6.18;4.05;;;;;;;19.05;38.76;101744.41;2611901;54;20084;-67
2021/08/14 05:18:37;;;;;;;6.95;4.30;;;;;;;19.03;38.54;101738.16;2645984;36;20038;-68
2021/08/14 05:21:07;;;;;;;7.43;4.68;;;;;;;19.01;38.31;101735.59;2612223;54;20050;-68
2021/08/14 05:23:37;;;;;;;7.35;4.30;;;;;;;19.02;38.85;101745.63;2645734;36;20046;-68
2021/08/14 05:26:06;;;;;;;7.05;4.43;;;;;;;19.02;38.87;101740.06;2611885;54;20401;-67
2021/08/14 05:28:36;;;;;;;7.10;4.55;;;;;;;19.02;39.61;101737.28;2646635;36;20035;-68
2021/08/14 05:31:07;;;;;;;7.95;4.45;;;;;;;19.05;39.75;101736.97;2611876;54;20045;-68
2021/08/14 05:33:37;;;;;;;6.68;4.30;;;;;;;19.05;39.16;101736.09;2645552;36;20637;-68
2021/08/14 05:36:08;;;;;;;7.40;4.13;;;;;;;19.07;39.39;101740.44;2608214;54;20038;-67
2021/08/14 05:38:38;;;;;;;6.45;4.35;;;;;;;19.12;39.57;101732.50;2644936;36;20034;-67
2021/08/14 05:41:08;;;;;;;6.88;4.43;;;;;;;19.16;40.12;101735.81;2611090;54;20038;-67
2021/08/14 05:43:38;;;;;;;6.50;4.30;;;;;;;19.21;39.46;101733.38;2645945;36;20039;-67
2021/08/14 05:46:09;;;;;;;6.80;4.45;;;;;;;19.28;39.91;101736.34;2611232;54;20559;-68
2021/08/14 05:48:39;;;;;;;8.63;5.07;;;;;;;19.31;40.10;101738.81;2646956;36;20039;-68
2021/08/14 05:51:12;;;;;;;7.68;5.00;;;;;;;19.34;39.89;101739.34;2613236;54;20039;-68
2021/08/14 05:53:45;;;;;;;7.03;4.28;;;;;;;19.38;39.66;101731.53;2612920;54;20582;-68
2021/08/14 05:56:15;;;;;;;7.97;4.53;;;;;;;19.42;39.70;101722.72;2613205;39;20510;-68
2021/08/14 05:58:45;;;;;;;6.88;4.50;;;;;;;19.44;39.25;101734.50;2647443;36;20039;-67
2021/08/14 06:01:16;;;;;;;6.85;4.50;;;;;;;19.49;39.13;101731.22;2612939;54;20042;-68
2021/08/14 06:03:46;;;;;;;7.03;4.38;;;;;;;19.50;39.46;101731.09;2647176;36;20042;-68
2021/08/14 06:06:16;;;;;;;7.55;4.03;;;;;;;19.52;38.99;101731.78;2612707;54;20034;-68
2021/08/14 06:08:46;;;;;;;7.30;4.05;;;;;;;19.55;38.97;101731.44;2646630;36;20098;-67
2021/08/14 06:11:15;;;;;;;6.93;4.20;;;;;;;19.58;39.38;101729.38;2612858;54;20038;-68
2021/08/14 06:13:45;;;;;;;6.43;4.03;;;;;;;19.58;38.87;101733.03;2647784;36;20041;-68
2021/08/14 06:16:16;;;;;;;6.13;3.70;;;;;;;19.62;38.93;101739.09;2613163;54;20086;-68
2021/08/14 06:18:47;;;;;;;7.47;3.80;;;;;;;19.63;38.63;101740.81;2646796;36;20046;-67
2021/08/14 06:21:17;;;;;;;6.68;4.07;;;;;;;19.65;39.15;101747.94;2613658;39;20101;-68
2021/08/14 06:23:46;;;;;;;5.70;3.35;;;;;;;19.65;38.91;101747.94;2647505;36;20046;-68
2021/08/14 06:26:16;;;;;;;6.65;3.50;;;;;;;19.68;39.02;101746.75;2612773;54;20046;-68
2021/08/14 06:28:46;;;;;;;5.53;3.28;;;;;;;19.69;39.06;101748.47;2647463;36;20034;-67
2021/08/14 06:31:17;;;;;;;6.25;3.55;;;;;;;19.74;38.94;101751.63;2613086;54;20034;-68
2021/08/14 06:33:47;;;;;;;6.57;3.20;;;;;;;19.73;39.37;101755.41;2648530;36;20448;-68
2021/08/14 06:36:17;;;;;;;7.55;3.80;;;;;;;19.75;39.49;101754.22;2612785;54;20034;-68
2021/08/14 06:38:47;;;;;;;5.57;3.15;;;;;;;19.78;39.36;101753.00;2647859;36;20038;-68
2021/08/14 06:41:17;;;;;;;7.82;4.03;;;;;;;19.82;39.31;101751.63;2612923;54;20069;-68
2021/08/14 06:43:46;;;;;;;7.07;3.40;;;;;;;19.85;39.83;101746.56;2647871;36;20038;-68
2021/08/14 06:46:19;;;;;;;7.07;2.97;;;;;;;19.92;39.62;101747.63;2612924;39;20534;-68
2021/08/14 06:48:49;;;;;;;;;;;;;;;19.68;39.47;101746.75;2648152;36;20571;-68
2021/08/14 06:51:18;;;;;;;5.13;2.70;;;;;;;19.98;39.86;101746.09;2612535;54;19950;-68
2021/08/14 06:53:48;;;;;;;7.07;2.97;;;;;;;20.11;39.79;101748.31;2648518;36;20448;-68
2021/08/14 06:56:18;;;;;;;8.05;2.92;;;;;;;20.20;39.81;101747.28;2612773;54;20039;-68
2021/08/14 06:58:47;;;;;;;5.85;2.92;;;;;;;20.32;39.88;101745.94;2648153;36;20042;-68
2021/08/14 07:01:19;;;;;;;5.72;2.80;;;;;;;20.46;39.66;101742.44;2613126;54;20045;-68
2021/08/14 07:03:49;;;;;;;5.22;2.58;;;;;;;20.55;39.85;101746.94;2647737;36;20038;-68
2021/08/14 07:06:22;;;;;;;7.50;2.50;;;;;;;20.74;39.77;101748.47;2612661;54;20669;-68
2021/08/14 07:08:52;;;;;;;6.35;2.75;;;;;;;20.86;39.47;101743.38;2648024;36;20826;-68
2021/08/14 07:11:23;;;;;;;8.07;2.70;;;;;;;21.02;39.11;101729.44;2613082;54;20045;-68
2021/08/14 07:13:53;;;;;;;6.20;2.70;;;;;;;21.16;39.24;101733.41;2647202;36;20455;-68
2021/08/14 07:16:24;;;;;;;5.70;2.67;;;;;;;21.34;39.33;101728.41;2612053;54;20046;-68
2021/08/14 07:18:54;;;;;;;6.72;2.65;;;;;;;21.47;39.14;101731.50;2647976;36;20461;-68
2021/08/14 07:21:24;;;;;;;5.78;2.55;;;;;;;21.61;39.03;101714.03;2613697;39;20464;-68
2021/08/14 07:23:54;;;;;;;6.75;2.40;;;;;;;21.75;38.36;101710.44;2647585;36;20038;-68
2021/08/14 07:26:24;;;;;;;5.45;2.50;;;;;;;21.90;38.47;101716.09;2612986;54;20042;-68
2021/08/14 07:28:57;;;;;;;5.65;2.60;;;;;;;22.04;37.69;101723.63;2647448;36;20550;-68
2021/08/14 07:31:28;;;;;;;5.28;2.80;;;;;;;22.21;37.95;101729.09;2613372;39;20432;-68
2021/08/14 07:33:58;;;;;;;5.63;2.92;;;;;;;22.29;37.58;101732.66;2676331;36;20491;-68
2021/08/14 07:36:28;;;;;;;4.70;2.50;;;;;;;22.44;37.30;101733.56;2612637;39;20113;-68
2021/08/14 07:38:58;;;;;;;5.68;2.40;;;;;;;22.57;36.65;101736.56;2647980;36;20046;-68
2021/08/14 07:41:27;;;;;;;4.90;2.67;;;;;;;22.68;36.50;101735.22;2612748;54;20042;-68
2021/08/14 07:43:57;;;;;;;5.25;2.90;;;;;;;22.78;36.61;101730.22;2648030;36;20039;-68
2021/08/14 07:46:28;;;;;;;5.85;2.60;;;;;;;22.91;35.92;101733.25;2612929;54;20495;-68
2021/08/14 07:48:59;;;;;;;5.70;2.40;;;;;;;22.98;36.43;101724.09;2647843;36;20065;-68
2021/08/14 07:51:29;;;;;;;5.38;2.55;;;;;;;23.09;36.15;101724.47;2613167;54;20065;-69
2021/08/14 07:53:59;;;;;;;5.60;3.00;;;;;;;23.18;36.06;101716.84;2647870;36;20034;-69
2021/08/14 07:56:29;;;;;;;6.63;2.78;;;;;;;23.28;36.07;101723.00;2612697;54;20039;-69
2021/08/14 07:58:58;;;;;;;5.78;2.42;;;;;;;23.38;35.69;101719.91;2649814;36;20439;-69
2021/08/14 08:01:29;;;;;;;5.57;2.47;;;;;;;23.49;35.31;101725.88;2613097;54;20038;-68
2021/08/14 08:03:59;;;;;;;5.18;2.75;;;;;;;23.55;35.41;101724.25;2648068;36;20074;-68
2021/08/14 08:06:29;;;;;;;5.53;2.28;;;;;;;23.63;35.13;101719.38;2612561;54;20045;-68
2021/08/14 08:08:59;;;;;;;6.70;2.63;;;;;;;23.71;34.84;101726.78;2648563;36;20567;-69
2021/08/14 08:11:29;;;;;;;4.88;2.50;;;;;;;23.78;34.57;101724.94;2612243;47;20113;-68
2021/08/14 08:13:58;;;;;;;6.38;2.30;;;;;;;23.84;34.61;101720.47;2647340;36;20551;-68
2021/08/14 08:16:34;;;;;;;4.35;2.15;;;;;;;23.92;34.23;101723.13;2612071;54;20038;-67
2021/08/14 08:19:04;;;;;;;5.97;2.07;;;;;;;23.95;34.41;101719.94;2645923;36;20588;-65
2021/08/14 08:21:34;;;;;;;6.75;2.55;;;;;;;24.01;34.07;101713.53;2610861;54;20038;-65
2021/08/14 08:24:04;;;;;;;5.50;2.33;;;;;;;24.08;33.65;101722.88;2645871;36;20044;-66
2021/08/14 08:26:34;;;;;;;6.28;2.58;;;;;;;24.14;33.72;101726.78;2611166;54;20060;-66
2021/08/14 08:29:04;;;;;;;4.63;2.25;;;;;;;24.19;33.76;101730.72;2647473;36;20479;-65
2021/08/14 08:31:35;;;;;;;5.28;2.38;;;;;;;24.26;33.25;101737.25;2612582;39;20316;-64
2021/08/14 08:34:05;;;;;;;5.27;2.40;;;;;;;24.28;33.50;101735.13;2648492;36;20045;-65
2021/08/14 08:36:35;;;;;;;5.18;2.20;;;;;;;24.34;33.21;101728.72;2612205;54;20330;-65
2021/08/14 08:39:06;;;;;;;4.60;2.10;;;;;;;24.39;33.05;101728.94;2648254;36;20034;-65
2021/08/14 08:41:36;;;;;;;4.53;1.90;;;;;;;24.44;32.98;101731.16;2612567;54;20038;-65
2021/08/14 08:44:06;;;;;;;4.65;1.83;;;;;;;24.49;32.97;101724.94;2648241;36;20441;-66
2021/08/14 08:46:38;;;;;;;4.00;2.10;;;;;;;24.55;32.41;101724.13;2612549;54;20038;-66
2021/08/14 08:49:09;;;;;;;5.97;2.00;;;;;;;24.54;32.28;101716.81;2647712;36;20039;-65
2021/08/14 08:51:39;;;;;;;5.65;2.10;;;;;;;24.61;32.13;101720.53;2612034;54;20034;-65
2021/08/14 08:54:14;;;;;;;5.93;1.90;;;;;;;24.66;31.69;101720.78;2645648;36;20053;-65
2021/08/14 08:56:44;;;;;;;6.03;2.50;;;;;;;24.65;32.12;101714.34;2609670;39;20459;-65
2021/08/14 08:59:14;;;;;;;3.42;1.88;;;;;;;24.70;31.46;101713.75;2646004;36;20042;-66
2021/08/14 09:01:45;;;;;;;3.80;1.80;;;;;;;24.74;31.70;101713.09;2612144;54;20057;-65
2021/08/14 09:04:27;;;;;;;5.72;2.00;;;;;;;24.77;31.09;101721.09;2649859;31;20581;-66
2021/08/14 09:07:01;;;;;;;4.63;1.80;;;;;;;24.77;31.43;101714.63;2612307;39;20447;-66
2021/08/14 09:09:33;;;;;;;4.45;1.83;;;;;;;24.82;31.40;101717.66;2629660;36;20041;-69
2021/08/14 09:12:06;;;;;;;4.78;1.95;;;;;;;24.83;30.98;101713.81;2648954;36;20038;-69
2021/08/14 09:14:48;;;;;;;4.90;1.77;;;;;;;24.88;31.13;101719.63;2611763;54;20039;-70
2021/08/14 09:17:19;;;;;;;4.72;1.90;;;;;;;24.88;30.93;101713.16;2676571;36;20551;-69
2021/08/14 09:19:50;;;;;;;3.92;1.70;;;;;;;24.88;30.33;101708.44;2612072;54;20034;-66
2021/08/14 09:22:23;;;;;;;3.38;1.77;;;;;;;24.91;30.43;101715.56;2648225;36;20011;-64
2021/08/14 09:24:53;;;;;;;4.00;1.92;;;;;;;24.91;30.11;101712.78;2610614;54;20559;-66
2021/08/14 09:27:23;;;;;;;5.18;1.90;;;;;;;24.92;29.83;101694.91;2648256;36;20383;-65
2021/08/14 09:29:55;;;;;;;3.45;1.60;;;;;;;24.93;30.26;101693.84;2611423;54;20069;-64
2021/08/14 09:32:28;;;;;;;6.00;1.75;;;;;;;24.96;29.91;101699.88;2649170;36;20436;-65
2021/08/14 09:34:59;;;;;;;5.35;1.48;;;;;;;24.94;30.18;101692.78;2611455;54;20042;-64
2021/08/14 09:37:37;;;;;;;5.03;1.90;;;;;;;24.97;29.63;101692.34;2648845;36;20475;-65
2021/08/14 09:40:10;;;;;;;5.05;1.90;;;;;;;24.97;30.05;101695.16;2612738;54;20045;-65
2021/08/14 09:42:52;;;;;;;3.63;1.67;;;;;;;24.99;29.32;101685.47;2646938;36;20038;-65
2021/08/14 09:45:23;;;;;;;4.57;1.60;;;;;;;24.97;29.59;101692.34;2610526;54;20069;-69
2021/08/14 09:47:54;;;;;;;4.15;1.80;;;;;;;25.00;29.62;101691.94;2648961;36;20591;-67
2021/08/14 09:50:35;;;;;;;4.18;1.88;;;;;;;25.00;28.72;101692.81;2612172;54;20061;-66
2021/08/14 09:53:15;;;;;;;4.25;1.65;;;;;;;25.04;28.50;101693.22;2631494;36;20034;-66
2021/08/14 09:55:47;;;;;;;4.68;1.77;;;;;;;25.00;29.11;101692.81;2611985;54;20042;-65
2021/08/14 09:58:20;;;;;;;4.00;1.77;;;;;;;24.99;28.85;101685.47;2647648;36;20041;-66
2021/08/14 10:00:52;;;;;;;4.13;1.90;;;;;;;25.01;28.52;101683.34;2611993;54;20034;-67
2021/08/14 10:03:25;;;;;;;4.55;1.73;;;;;;;25.00;28.61;101681.59;2647900;36;20522;-68
2021/08/14 10:05:56;;;;;;;5.22;1.92;;;;;;;24.97;28.63;101681.16;2611905;54;20058;-69
2021/08/14 10:08:26;;;;;;;3.78;1.73;;;;;;;24.98;28.90;101682.88;2648178;36;20122;-68
2021/08/14 10:10:57;;;;;;;4.60;1.80;;;;;;;24.98;28.90;101680.94;2611118;54;20038;-69
2021/08/14 10:13:29;;;;;;;4.60;1.70;;;;;;;25.00;28.53;101680.75;2648321;36;20030;-69
2021/08/14 10:16:02;;;;;;;4.63;1.90;;;;;;;25.01;28.45;101674.94;2612025;54;20045;-66
2021/08/14 10:18:36;;;;;;;;;;;;;;;24.74;29.48;101681.47;2646474;36;20038;-69
2021/08/14 10:21:06;;;;;;;4.00;1.67;;;;;;;25.00;28.83;101672.34;2611310;54;20084;-68
2021/08/14 10:23:37;;;;;;;3.50;1.55;;;;;;;25.06;28.71;101668.69;2646219;36;20034;-69
2021/08/14 10:26:10;;;;;;;4.78;1.85;;;;;;;25.13;28.06;101672.38;2609928;54;20454;-67
2021/08/14 10:28:45;;;;;;;4.75;1.75;;;;;;;25.14;27.58;101666.59;2647534;36;20483;-66
2021/08/14 10:31:47;;;;;;;4.70;1.63;;;;;;;25.15;27.90;101667.44;2611079;54;20038;-67
2021/08/14 10:34:39;;;;;;;5.82;1.73;;;;;;;25.13;27.80;101670.44;2647937;36;20041;-67
2021/08/14 10:37:36;;;;;;;3.58;1.55;;;;;;;25.14;27.84;101657.31;2637579;36;20039;-67
2021/08/14 10:40:08;;;;;;;3.60;1.60;;;;;;;25.16;27.94;101655.19;2609554;54;20059;-66
2021/08/14 10:42:57;;;;;;;5.80;1.70;;;;;;;25.18;28.01;101667.91;2628624;36;20917;-67
2021/08/14 10:45:35;;;;;;;3.13;1.48;;;;;;;25.23;27.84;101656.06;2611380;54;20039;-68
2021/08/14 10:48:06;;;;;;;5.30;2.13;;;;;;;25.25;27.84;101661.50;2627236;36;20046;-67
2021/08/14 10:50:56;;;;;;;4.53;1.90;;;;;;;25.30;27.66;101651.38;2609958;54;20680;-66
2021/08/14 10:53:26;;;;;;;4.80;1.80;;;;;;;25.29;27.60;101658.06;2645731;36;20038;-69
2021/08/14 10:55:57;;;;;;;4.00;2.00;;;;;;;25.34;27.24;101649.03;2609995;54;20046;-67
2021/08/14 10:58:30;;;;;;;4.67;2.10;;;;;;;25.36;27.41;101649.69;2629027;36;20035;-66
2021/08/14 11:01:35;;;;;;;4.78;1.88;;;;;;;25.34;27.18;101640.63;2610467;47;20069;-66
2021/08/14 11:04:36;;;;;;;4.15;1.60;;;;;;;25.38;26.43;101644.72;2647719;36;20042;-69
2021/08/14 11:07:35;;;;;;;4.93;1.80;;;;;;;25.39;26.55;101632.44;2647075;36;20042;-67
2021/08/14 11:10:13;;;;;;;4.05;1.80;;;;;;;25.42;26.77;101637.63;2611257;39;20453;-68
2021/08/14 11:12:46;;;;;;;3.70;1.88;;;;;;;25.43;27.32;101634.63;2646985;36;20125;-69
2021/08/14 11:15:19;;;;;;;4.25;1.73;;;;;;;25.46;26.53;101634.19;2611599;39;20295;-71
2021/08/14 11:17:51;;;;;;;3.40;1.73;;;;;;;25.49;26.82;101644.97;2647579;36;20038;-71
2021/08/14 11:20:37;;;;;;;3.35;1.60;;;;;;;25.55;26.68;101635.72;2610672;39;20328;-70
2021/08/14 11:23:27;;;;;;;3.58;1.60;;;;;;;25.62;26.67;101635.72;2646931;36;20077;-72
2021/08/14 11:25:59;;;;;;;4.85;1.67;;;;;;;25.65;26.98;101632.50;2610869;39;20093;-71
2021/08/14 11:28:30;;;;;;;3.10;1.55;;;;;;;25.68;26.85;101636.81;2645207;36;20421;-68
2021/08/14 11:31:01;;;;;;;4.50;1.80;;;;;;;25.72;26.82;101632.50;2610582;54;20543;-70
2021/08/14 11:33:31;;;;;;;3.20;1.48;;;;;;;25.72;26.25;101626.91;2647988;36;20523;-71
2021/08/14 11:36:07;;;;;;;3.97;1.80;;;;;;;25.78;25.72;101626.03;2610836;54;20038;-69
2021/08/14 11:38:41;;;;;;;3.88;1.90;;;;;;;25.79;26.07;101630.56;2648238;36;20712;-71
2021/08/14 11:41:15;;;;;;;4.05;1.83;;;;;;;25.80;26.08;101630.34;2611345;46;20062;-73
2021/08/14 11:43:45;;;;;;;4.88;1.70;;;;;;;25.78;26.09;101634.44;2648053;36;20133;-70
2021/08/14 11:46:16;;;;;;;4.10;1.67;;;;;;;25.79;26.33;101625.81;2611593;54;20034;-70